Warm Springs, OR (97761)

12:38 AM PDT on May 06, 2015 (GMT -0700)
RAWS | | Change Station
CLOSE
Current Station
Personal Weather Station
Location: Warm Springs, OR
Elevation: 1562 ft
Nearby Weather Stations

Elev 1562 ft 44.78 °N, 121.25 °W | Updated 1 hour ago

Clear
Clear
44 °F
Feels Like 44 °F
N
2
Wind Variable Wind from WNW
Gusts 7.0 mph

Today
High -- | Low -- °F
--% Chance of Precip.
Yesterday
High -- | Low -- °F
Precip. -- in
5:48 AM 8:16 PM
Waning Gibbous, 95% visible
Pressure 30.04 in
Visibility 10.0 miles
Clouds Clear
Windchill 44 °F
Dew Point 32 °F
Humidity 63%
Rainfall in
Snow Depth Not available.
UV 0 out of 12
Pollen 4.80 out of 12
Air Quality Not available.
Flu Activity Regional
METAR KRDM 060656Z AUTO 11003KT 10SM CLR 02/M03 A3003 RMK AO2 SLP172 T00171028

More Conditions Fewer Conditions

Pressure 30.04 in
Visibility 10.0 miles
Clouds Clear
Windchill 44 °F
Dew Point 32 °F
Humidity 63%
Rainfall in
Snow Depth Not available.
UV 0 out of 12
Pollen 4.80 out of 12
Air Quality Not available.
Flu Activity Regional
METAR KRDM 060656Z AUTO 11003KT 10SM CLR 02/M03 A3003 RMK AO2 SLP172 T00171028

More Conditions Fewer Conditions

10-Day Weather Forecast

Almanac

Astronomy

May. 06, 2015 Rise Set
Actual Time
Civil Twilight
Nautical Twilight
Astronomical Twilight
Moon
Length of Visible Light
Length of Day
Tomorrow will be .
, % of the Moon is Illuminated

Today's Extremes

State Highs State Lows

Community

WunderPhotos

Upload Photos

1,818,856 photos uploaded!

WunderBlogs® & News

Nearby

Air Quality

  Air Quality AQ Index Pollutant
Not available.

Snow Depth

Station Depth Elevation

Earthquake Activity

City Distance Mag. Time & Date
Minimum magnitude displayed is 2.5.

Coastal Water Temperatures

Place Temperature

Stations

Nearby Weather Stations

Station Location Temp. Windchill Dew Point Humidity Wind Precip. Elev Updated Type